Caletta — ICNZ — position and weather

sailwx.info

Track history (hours):
 
Tides and Currents Weather Stations Pressure Air Temp Water Temp Dewpoint Dewpoint Depression Visibility Wind Speed Wind Dir Waves Ship Positions

Caletta

Last reported at 2016-May-19 11:26 UTC. Time now 2016-May-27 06:29 UTC.
Position N 29°34' W 093°44'.

Length 183 m; draft 10.6 m.

Type: Ship (hazmat cat A). MMSI: 247296300.

Date/timePositionNaut miles runAvg speedWind from/ knotsBaromVisibWave heightAir tempDewpointWater temp
2016-May-19 11:26N 29°34' W 093°44'0 0.0
2016-May-19 10:17N 29°34' W 093°44'0 0.0
2016-May-19 09:32N 29°34' W 093°44'0 0.0
2016-May-19 06:20N 29°34' W 093°44'0 0.0
2016-May-19 04:26N 29°34' W 093°44'0 0.0
2016-May-19 03:26N 29°34' W 093°44'0 0.0
2016-May-18 14:32N 29°34' W 093°44'0 0.0
2016-May-18 13:32N 29°34' W 093°44'0 0.0
2016-May-18 12:26N 29°34' W 093°44'0 0.0
2016-May-18 11:32N 29°34' W 093°44'0 0.0
2016-May-18 09:32N 29°34' W 093°44'0 0.0
2016-May-18 08:08N 29°34' W 093°44'23 1.2
2016-May-17 13:23N 29°56' W 093°52'5 5.7
2016-May-17 12:33N 29°60' W 093°56'5 0.4
2016-May-16 21:33N 30°01' W 094°02'5 4.4
2016-May-16 20:20N 29°59' W 093°56'4 4.8
2016-May-16 19:33N 29°59' W 093°52'5 5.2
2016-May-16 18:33N 29°54' W 093°54'7 6.8
2016-May-16 17:34N 29°48' W 093°57'7 6.9
2016-May-16 16:34N 29°43' W 093°51'12 2.4
2016-May-16 11:30N 29°31' W 093°47'  
2016-May-14 00:32N 29°23' W 094°53'17 0.9
2016-May-13 06:20N 29°11' W 094°39'0 0.0
2016-May-13 03:23N 29°11' W 094°39'0 0.0
2016-May-13 02:29N 29°11' W 094°39'  
Track history (hours):
 
Tides and Currents Weather Stations Pressure Air Temp Water Temp Dewpoint Dewpoint Depression Visibility Wind Speed Wind Dir Waves Ship Positions

Caletta

Last reported at 2016-May-19 11:26 UTC. Time now 2016-May-27 06:29 UTC.
Position N 29°34' W 093°44'.

Length 183 m; draft 10.6 m.

Type: Ship (hazmat cat A). MMSI: 247296300.

Date/timePositionNaut miles runAvg speedWind from/ knotsBaromVisibWave heightAir tempDewpointWater temp
2016-May-19 11:26N 29°34' W 093°44'0 0.0
2016-May-19 10:17N 29°34' W 093°44'0 0.0
2016-May-19 09:32N 29°34' W 093°44'0 0.0
2016-May-19 06:20N 29°34' W 093°44'0 0.0
2016-May-19 04:26N 29°34' W 093°44'0 0.0
2016-May-19 03:26N 29°34' W 093°44'0 0.0
2016-May-18 14:32N 29°34' W 093°44'0 0.0
2016-May-18 13:32N 29°34' W 093°44'0 0.0
2016-May-18 12:26N 29°34' W 093°44'0 0.0
2016-May-18 11:32N 29°34' W 093°44'0 0.0
2016-May-18 09:32N 29°34' W 093°44'0 0.0
2016-May-18 08:08N 29°34' W 093°44'23 1.2
2016-May-17 13:23N 29°56' W 093°52'5 5.7
2016-May-17 12:33N 29°60' W 093°56'5 0.4
2016-May-16 21:33N 30°01' W 094°02'5 4.4
2016-May-16 20:20N 29°59' W 093°56'4 4.8
2016-May-16 19:33N 29°59' W 093°52'5 5.2
2016-May-16 18:33N 29°54' W 093°54'7 6.8
2016-May-16 17:34N 29°48' W 093°57'7 6.9
2016-May-16 16:34N 29°43' W 093°51'12 2.4
2016-May-16 11:30N 29°31' W 093°47'  
2016-May-14 00:32N 29°23' W 094°53'17 0.9
2016-May-13 06:20N 29°11' W 094°39'0 0.0
2016-May-13 03:23N 29°11' W 094°39'0 0.0
2016-May-13 02:29N 29°11' W 094°39'  

Dump ship's entire track history